sensor_id;sensor_type;location;lat;lon;timestamp;pressure;altitude;pressure_sealevel;temperature;humidity
9462;BME280;4769;42.660;23.262;2023-02-12T00:00:14;94937.16;;;2.11;39.05
9462;BME280;4769;42.660;23.262;2023-02-12T00:02:41;94936.69;;;2.15;39.40
9462;BME280;4769;42.660;23.262;2023-02-12T00:05:08;94934.56;;;2.11;39.85
9462;BME280;4769;42.660;23.262;2023-02-12T00:07:36;94930.66;;;2.15;39.79
9462;BME280;4769;42.660;23.262;2023-02-12T00:10:03;94926.78;;;2.11;39.34
9462;BME280;4769;42.660;23.262;2023-02-12T00:12:30;94944.03;;;2.04;39.78
9462;BME280;4769;42.660;23.262;2023-02-12T00:14:57;94938.97;;;2.10;39.59
9462;BME280;4769;42.660;23.262;2023-02-12T00:17:24;94941.38;;;2.12;39.76
9462;BME280;4769;42.660;23.262;2023-02-12T00:19:50;94943.25;;;1.95;40.23
9462;BME280;4769;42.660;23.262;2023-02-12T00:22:17;94945.34;;;2.00;40.05
9462;BME280;4769;42.660;23.262;2023-02-12T00:24:45;94933.09;;;2.16;39.36
9462;BME280;4769;42.660;23.262;2023-02-12T00:27:12;94929.50;;;2.17;39.86
9462;BME280;4769;42.660;23.262;2023-02-12T00:29:39;94932.97;;;2.10;39.76
9462;BME280;4769;42.660;23.262;2023-02-12T00:32:06;94928.38;;;2.12;39.68
9462;BME280;4769;42.660;23.262;2023-02-12T00:34:32;94931.47;;;2.15;39.91
9462;BME280;4769;42.660;23.262;2023-02-12T00:36:59;94927.59;;;2.11;39.93
9462;BME280;4769;42.660;23.262;2023-02-12T00:39:27;94909.72;;;2.08;40.02
9462;BME280;4769;42.660;23.262;2023-02-12T00:41:55;94922.88;;;2.07;39.99
9462;BME280;4769;42.660;23.262;2023-02-12T00:44:21;94899.59;;;2.13;39.84
9462;BME280;4769;42.660;23.262;2023-02-12T00:46:48;94886.41;;;2.23;39.63
9462;BME280;4769;42.660;23.262;2023-02-12T00:49:15;94886.69;;;2.28;39.67
9462;BME280;4769;42.660;23.262;2023-02-12T00:51:43;94896.38;;;2.11;40.75
9462;BME280;4769;42.660;23.262;2023-02-12T00:54:11;94883.97;;;1.91;41.43
9462;BME280;4769;42.660;23.262;2023-02-12T00:56:38;94888.75;;;2.10;40.45
9462;BME280;4769;42.660;23.262;2023-02-12T00:59:06;94887.13;;;2.09;40.81
9462;BME280;4769;42.660;23.262;2023-02-12T01:01:33;94868.66;;;1.96;40.81
9462;BME280;4769;42.660;23.262;2023-02-12T01:04:00;94873.34;;;2.00;40.95
9462;BME280;4769;42.660;23.262;2023-02-12T01:06:26;94867.47;;;2.06;40.65
9462;BME280;4769;42.660;23.262;2023-02-12T01:08:53;94868.56;;;2.12;41.31
9462;BME280;4769;42.660;23.262;2023-02-12T01:11:20;94867.50;;;1.98;41.72
9462;BME280;4769;42.660;23.262;2023-02-12T01:13:47;94858.59;;;1.93;41.41
9462;BME280;4769;42.660;23.262;2023-02-12T01:16:16;94881.34;;;1.91;41.97
9462;BME280;4769;42.660;23.262;2023-02-12T01:18:44;94882.97;;;1.92;42.21
9462;BME280;4769;42.660;23.262;2023-02-12T01:21:13;94872.78;;;1.82;42.97
9462;BME280;4769;42.660;23.262;2023-02-12T01:23:41;94870.50;;;1.87;42.68
9462;BME280;4769;42.660;23.262;2023-02-12T01:26:08;94882.84;;;1.85;42.34
9462;BME280;4769;42.660;23.262;2023-02-12T01:28:36;94882.38;;;1.82;43.21
9462;BME280;4769;42.660;23.262;2023-02-12T01:31:08;94887.19;;;1.93;43.38
9462;BME280;4769;42.660;23.262;2023-02-12T01:33:36;94890.94;;;1.90;43.18
9462;BME280;4769;42.660;23.262;2023-02-12T01:36:03;94894.75;;;1.80;43.79
9462;BME280;4769;42.660;23.262;2023-02-12T01:38:30;94870.38;;;1.73;44.08
9462;BME280;4769;42.660;23.262;2023-02-12T01:41:01;94901.09;;;1.77;43.63
9462;BME280;4769;42.660;23.262;2023-02-12T01:43:28;94877.50;;;1.79;43.42
9462;BME280;4769;42.660;23.262;2023-02-12T01:45:58;94885.97;;;1.73;44.57
9462;BME280;4769;42.660;23.262;2023-02-12T01:48:27;94871.81;;;1.75;44.52
9462;BME280;4769;42.660;23.262;2023-02-12T01:50:56;94858.66;;;1.77;44.35
9462;BME280;4769;42.660;23.262;2023-02-12T01:53:29;94865.47;;;1.78;44.64
9462;BME280;4769;42.660;23.262;2023-02-12T01:55:58;94858.38;;;1.72;44.99
9462;BME280;4769;42.660;23.262;2023-02-12T01:58:28;94861.28;;;1.69;45.58
9462;BME280;4769;42.660;23.262;2023-02-12T02:00:56;94876.00;;;1.84;45.04
9462;BME280;4769;42.660;23.262;2023-02-12T02:03:25;94870.63;;;1.94;45.15
9462;BME280;4769;42.660;23.262;2023-02-12T02:05:58;94861.28;;;1.69;45.43
9462;BME280;4769;42.660;23.262;2023-02-12T02:08:26;94871.16;;;1.81;45.54
9462;BME280;4769;42.660;23.262;2023-02-12T02:10:54;94849.91;;;1.70;46.11
9462;BME280;4769;42.660;23.262;2023-02-12T02:13:21;94869.84;;;1.85;45.57
9462;BME280;4769;42.660;23.262;2023-02-12T02:16:11;94864.00;;;1.83;46.08
9462;BME280;4769;42.660;23.262;2023-02-12T02:18:45;94864.03;;;1.75;46.21
9462;BME280;4769;42.660;23.262;2023-02-12T02:21:47;94857.72;;;1.70;46.64
9462;BME280;4769;42.660;23.262;2023-02-12T02:24:44;94854.28;;;1.77;46.84
9462;BME280;4769;42.660;23.262;2023-02-12T02:27:17;94855.00;;;1.63;47.89
9462;BME280;4769;42.660;23.262;2023-02-12T02:30:19;94862.25;;;1.76;48.48
9462;BME280;4769;42.660;23.262;2023-02-12T02:32:55;94859.50;;;1.77;48.62
9462;BME280;4769;42.660;23.262;2023-02-12T02:35:27;94870.00;;;1.84;48.29
9462;BME280;4769;42.660;23.262;2023-02-12T02:38:06;94856.44;;;1.66;49.20
9462;BME280;4769;42.660;23.262;2023-02-12T02:40:39;94856.56;;;1.72;49.67
9462;BME280;4769;42.660;23.262;2023-02-12T02:43:14;94860.59;;;1.83;49.76
9462;BME280;4769;42.660;23.262;2023-02-12T02:45:47;94865.19;;;1.73;50.47
9462;BME280;4769;42.660;23.262;2023-02-12T02:48:19;94867.09;;;1.79;50.21
9462;BME280;4769;42.660;23.262;2023-02-12T02:50:53;94860.59;;;1.75;50.09
9462;BME280;4769;42.660;23.262;2023-02-12T02:53:27;94864.13;;;1.90;49.94
9462;BME280;4769;42.660;23.262;2023-02-12T02:55:58;94850.84;;;1.85;50.15
9462;BME280;4769;42.660;23.262;2023-02-12T02:58:27;94862.84;;;1.86;50.10
9462;BME280;4769;42.660;23.262;2023-02-12T03:01:02;94849.50;;;1.89;49.84
9462;BME280;4769;42.660;23.262;2023-02-12T03:03:33;94856.81;;;1.93;50.11
9462;BME280;4769;42.660;23.262;2023-02-12T03:06:04;94854.75;;;2.11;50.44
9462;BME280;4769;42.660;23.262;2023-02-12T03:08:36;94860.47;;;2.07;50.62
9462;BME280;4769;42.660;23.262;2023-02-12T03:11:09;94865.84;;;2.05;50.91
9462;BME280;4769;42.660;23.262;2023-02-12T03:13:41;94868.94;;;2.01;51.26
9462;BME280;4769;42.660;23.262;2023-02-12T03:16:16;94863.25;;;2.05;51.38
9462;BME280;4769;42.660;23.262;2023-02-12T03:18:48;94862.72;;;2.10;51.06
9462;BME280;4769;42.660;23.262;2023-02-12T03:21:20;94847.75;;;2.12;51.33
9462;BME280;4769;42.660;23.262;2023-02-12T03:23:51;94848.97;;;2.01;51.66
9462;BME280;4769;42.660;23.262;2023-02-12T03:26:24;94852.00;;;2.13;51.78
9462;BME280;4769;42.660;23.262;2023-02-12T03:28:52;94831.56;;;2.02;51.88
9462;BME280;4769;42.660;23.262;2023-02-12T03:31:29;94837.34;;;2.12;51.26
9462;BME280;4769;42.660;23.262;2023-02-12T03:34:06;94838.16;;;2.12;51.59
9462;BME280;4769;42.660;23.262;2023-02-12T03:36:42;94835.72;;;2.11;52.89
9462;BME280;4769;42.660;23.262;2023-02-12T03:39:12;94842.22;;;2.15;52.53
9462;BME280;4769;42.660;23.262;2023-02-12T03:41:44;94849.63;;;2.26;51.95
9462;BME280;4769;42.660;23.262;2023-02-12T03:44:19;94848.69;;;2.19;52.70
9462;BME280;4769;42.660;23.262;2023-02-12T03:46:57;94843.50;;;2.19;53.14
9462;BME280;4769;42.660;23.262;2023-02-12T03:49:28;94846.00;;;2.04;53.43
9462;BME280;4769;42.660;23.262;2023-02-12T03:51:56;94837.34;;;2.12;53.41
9462;BME280;4769;42.660;23.262;2023-02-12T03:54:24;94839.16;;;2.11;53.27
9462;BME280;4769;42.660;23.262;2023-02-12T03:56:54;94847.00;;;2.03;53.69
9462;BME280;4769;42.660;23.262;2023-02-12T03:59:23;94842.38;;;2.13;53.96
9462;BME280;4769;42.660;23.262;2023-02-12T04:01:53;94857.13;;;2.21;52.74
9462;BME280;4769;42.660;23.262;2023-02-12T04:04:22;94841.34;;;2.22;52.63
9462;BME280;4769;42.660;23.262;2023-02-12T04:06:50;94835.69;;;2.19;52.13
9462;BME280;4769;42.660;23.262;2023-02-12T04:09:19;94837.97;;;2.22;51.80
9462;BME280;4769;42.660;23.262;2023-02-12T04:11:57;94835.88;;;2.40;51.96
9462;BME280;4769;42.660;23.262;2023-02-12T04:14:30;94829.22;;;2.37;51.81
9462;BME280;4769;42.660;23.262;2023-02-12T04:17:08;94836.22;;;2.37;51.19
9462;BME280;4769;42.660;23.262;2023-02-12T04:19:44;94846.06;;;2.49;50.58
9462;BME280;4769;42.660;23.262;2023-02-12T04:22:24;94844.00;;;2.45;50.38
9462;BME280;4769;42.660;23.262;2023-02-12T04:25:00;94855.19;;;2.45;50.92
9462;BME280;4769;42.660;23.262;2023-02-12T04:27:34;94867.75;;;2.42;50.67
9462;BME280;4769;42.660;23.262;2023-02-12T04:30:06;94867.88;;;2.48;50.07
9462;BME280;4769;42.660;23.262;2023-02-12T04:32:40;94859.94;;;2.42;50.13
9462;BME280;4769;42.660;23.262;2023-02-12T04:35:14;94862.94;;;2.53;50.28
9462;BME280;4769;42.660;23.262;2023-02-12T04:37:47;94858.53;;;2.54;50.76
9462;BME280;4769;42.660;23.262;2023-02-12T04:40:18;94855.19;;;2.45;50.54
9462;BME280;4769;42.660;23.262;2023-02-12T04:42:47;94857.63;;;2.47;50.28
9462;BME280;4769;42.660;23.262;2023-02-12T04:45:18;94867.22;;;2.46;50.81
9462;BME280;4769;42.660;23.262;2023-02-12T04:47:47;94867.88;;;2.48;49.95
9462;BME280;4769;42.660;23.262;2023-02-12T04:50:14;94884.75;;;2.52;49.88
9462;BME280;4769;42.660;23.262;2023-02-12T04:52:41;94879.69;;;2.28;51.06
9462;BME280;4769;42.660;23.262;2023-02-12T04:55:07;94884.72;;;2.30;50.22
9462;BME280;4769;42.660;23.262;2023-02-12T04:57:34;94885.09;;;2.27;50.93
9462;BME280;4769;42.660;23.262;2023-02-12T05:00:03;94880.00;;;2.33;51.19
9462;BME280;4769;42.660;23.262;2023-02-12T05:02:30;94886.41;;;2.45;50.28
9462;BME280;4769;42.660;23.262;2023-02-12T05:05:00;94903.47;;;2.48;50.83
9462;BME280;4769;42.660;23.262;2023-02-12T05:07:27;94898.16;;;2.41;50.23
9462;BME280;4769;42.660;23.262;2023-02-12T05:09:53;94898.44;;;2.46;50.34
9462;BME280;4769;42.660;23.262;2023-02-12T05:12:20;94910.44;;;2.25;50.88
9462;BME280;4769;42.660;23.262;2023-02-12T05:14:47;94909.09;;;2.37;50.42
9462;BME280;4769;42.660;23.262;2023-02-12T05:17:13;94913.72;;;2.27;51.45
9462;BME280;4769;42.660;23.262;2023-02-12T05:19:40;94931.81;;;2.12;52.19
9462;BME280;4769;42.660;23.262;2023-02-12T05:22:08;94923.56;;;2.01;53.98
9462;BME280;4769;42.660;23.262;2023-02-12T05:24:36;94919.78;;;2.11;54.75
9462;BME280;4769;42.660;23.262;2023-02-12T05:27:03;94930.75;;;1.99;55.49
9462;BME280;4769;42.660;23.262;2023-02-12T05:29:30;94937.59;;;1.84;57.61
9462;BME280;4769;42.660;23.262;2023-02-12T05:31:56;94951.78;;;1.65;58.42
9462;BME280;4769;42.660;23.262;2023-02-12T05:34:23;94934.75;;;1.47;60.65
9462;BME280;4769;42.660;23.262;2023-02-12T05:36:50;94936.72;;;1.45;61.39
9462;BME280;4769;42.660;23.262;2023-02-12T05:39:18;94955.59;;;1.31;62.49
9462;BME280;4769;42.660;23.262;2023-02-12T05:41:45;94947.63;;;1.32;63.19
9462;BME280;4769;42.660;23.262;2023-02-12T05:44:11;94940.66;;;1.25;64.03
9462;BME280;4769;42.660;23.262;2023-02-12T05:46:39;94947.31;;;1.27;63.95
9462;BME280;4769;42.660;23.262;2023-02-12T05:49:06;94940.97;;;1.22;64.09
9462;BME280;4769;42.660;23.262;2023-02-12T05:51:33;94958.34;;;1.37;63.82
9462;BME280;4769;42.660;23.262;2023-02-12T05:54:01;94937.41;;;1.23;64.72
9462;BME280;4769;42.660;23.262;2023-02-12T05:56:31;94955.91;;;1.28;66.21
9462;BME280;4769;42.660;23.262;2023-02-12T05:59:01;94956.75;;;1.12;68.56
9462;BME280;4769;42.660;23.262;2023-02-12T06:01:30;94956.56;;;0.82;71.13
9462;BME280;4769;42.660;23.262;2023-02-12T06:03:57;94968.06;;;0.79;71.94
9462;BME280;4769;42.660;23.262;2023-02-12T06:06:24;94959.16;;;0.90;71.94
9462;BME280;4769;42.660;23.262;2023-02-12T06:08:51;94952.63;;;0.62;73.65
9462;BME280;4769;42.660;23.262;2023-02-12T06:11:18;94965.16;;;1.06;72.64
9462;BME280;4769;42.660;23.262;2023-02-12T06:13:47;94961.75;;;0.90;74.23
9462;BME280;4769;42.660;23.262;2023-02-12T06:16:18;94954.13;;;1.04;74.05
9462;BME280;4769;42.660;23.262;2023-02-12T06:18:46;94938.88;;;0.93;75.31
9462;BME280;4769;42.660;23.262;2023-02-12T06:21:14;94959.81;;;1.00;74.95
9462;BME280;4769;42.660;23.262;2023-02-12T06:23:40;94958.69;;;0.94;76.14
9462;BME280;4769;42.660;23.262;2023-02-12T06:26:07;94959.81;;;0.92;77.93
9462;BME280;4769;42.660;23.262;2023-02-12T06:28:34;94959.16;;;0.90;79.82
9462;BME280;4769;42.660;23.262;2023-02-12T06:31:03;94944.38;;;0.74;82.62
9462;BME280;4769;42.660;23.262;2023-02-12T06:33:30;94940.81;;;0.67;84.09
9462;BME280;4769;42.660;23.262;2023-02-12T06:35:57;94953.47;;;0.78;84.07
9462;BME280;4769;42.660;23.262;2023-02-12T06:38:24;94952.84;;;0.84;84.06
9462;BME280;4769;42.660;23.262;2023-02-12T06:40:50;94965.00;;;0.92;83.09
9462;BME280;4769;42.660;23.262;2023-02-12T06:43:17;94955.59;;;0.83;84.12
9462;BME280;4769;42.660;23.262;2023-02-12T06:45:44;94959.00;;;1.07;83.36
9462;BME280;4769;42.660;23.262;2023-02-12T06:48:12;94957.84;;;0.94;84.08
9462;BME280;4769;42.660;23.262;2023-02-12T06:50:39;94956.88;;;1.19;83.89
9462;BME280;4769;42.660;23.262;2023-02-12T06:53:06;94972.78;;;1.08;83.65
9462;BME280;4769;42.660;23.262;2023-02-12T06:55:33;94965.34;;;0.97;83.85
9462;BME280;4769;42.660;23.262;2023-02-12T06:58:00;94958.50;;;1.04;82.59
9462;BME280;4769;42.660;23.262;2023-02-12T07:00:27;94963.88;;;1.10;81.81
9462;BME280;4769;42.660;23.262;2023-02-12T07:02:54;94969.88;;;0.95;82.08
9462;BME280;4769;42.660;23.262;2023-02-12T07:05:23;94965.34;;;1.21;81.32
9462;BME280;4769;42.660;23.262;2023-02-12T07:07:50;94967.13;;;1.04;81.21
9462;BME280;4769;42.660;23.262;2023-02-12T07:10:17;94956.88;;;1.27;80.84
9462;BME280;4769;42.660;23.262;2023-02-12T07:12:44;94969.88;;;1.35;80.04
9462;BME280;4769;42.660;23.262;2023-02-12T07:15:11;94947.94;;;1.37;79.57
9462;BME280;4769;42.660;23.262;2023-02-12T07:17:39;94949.25;;;1.49;79.66
9462;BME280;4769;42.660;23.262;2023-02-12T07:20:06;94957.81;;;1.58;79.68
9462;BME280;4769;42.660;23.262;2023-02-12T07:22:36;94958.59;;;1.66;78.47
9462;BME280;4769;42.660;23.262;2023-02-12T07:25:04;94957.00;;;1.65;78.47
9462;BME280;4769;42.660;23.262;2023-02-12T07:27:33;94960.09;;;1.53;79.52
9462;BME280;4769;42.660;23.262;2023-02-12T07:30:01;94968.69;;;1.61;78.74
9462;BME280;4769;42.660;23.262;2023-02-12T07:32:30;94953.09;;;1.61;78.81
9462;BME280;4769;42.660;23.262;2023-02-12T07:34:57;94961.22;;;1.66;78.73
9462;BME280;4769;42.660;23.262;2023-02-12T07:37:24;94959.88;;;1.78;78.51
9462;BME280;4769;42.660;23.262;2023-02-12T07:39:52;94960.06;;;1.77;78.38
9462;BME280;4769;42.660;23.262;2023-02-12T07:42:19;94960.34;;;1.90;78.23
9462;BME280;4769;42.660;23.262;2023-02-12T07:44:47;94972.06;;;1.78;78.99
9462;BME280;4769;42.660;23.262;2023-02-12T07:47:14;94972.56;;;1.73;78.84
9462;BME280;4769;42.660;23.262;2023-02-12T07:49:41;94985.06;;;1.70;79.26
9462;BME280;4769;42.660;23.262;2023-02-12T07:52:08;94989.63;;;1.68;79.78
9462;BME280;4769;42.660;23.262;2023-02-12T07:54:35;94984.06;;;1.87;79.42
9462;BME280;4769;42.660;23.262;2023-02-12T07:57:05;94981.97;;;1.82;79.08
9462;BME280;4769;42.660;23.262;2023-02-12T07:59:32;94977.09;;;1.79;79.60
9462;BME280;4769;42.660;23.262;2023-02-12T08:01:59;94987.00;;;1.84;79.34
9462;BME280;4769;42.660;23.262;2023-02-12T08:04:26;94995.91;;;1.97;79.82
9462;BME280;4769;42.660;23.262;2023-02-12T08:06:55;94988.34;;;1.80;80.58
9462;BME280;4769;42.660;23.262;2023-02-12T08:09:24;94999.53;;;1.80;80.60
9462;BME280;4769;42.660;23.262;2023-02-12T08:11:51;94996.25;;;1.94;81.01
9462;BME280;4769;42.660;23.262;2023-02-12T08:14:22;94982.63;;;1.84;81.09
9462;BME280;4769;42.660;23.262;2023-02-12T08:16:50;94990.41;;;1.92;81.20
9462;BME280;4769;42.660;23.262;2023-02-12T08:19:17;94995.28;;;1.87;81.82
9462;BME280;4769;42.660;23.262;2023-02-12T08:21:44;94990.56;;;1.83;81.83
9462;BME280;4769;42.660;23.262;2023-02-12T08:24:11;94998.72;;;1.80;82.82
9462;BME280;4769;42.660;23.262;2023-02-12T08:26:38;94997.91;;;1.79;82.80
9462;BME280;4769;42.660;23.262;2023-02-12T08:29:07;95000.50;;;1.87;82.03
9462;BME280;4769;42.660;23.262;2023-02-12T08:31:37;95008.09;;;1.89;82.53
9462;BME280;4769;42.660;23.262;2023-02-12T08:34:04;95007.00;;;1.91;82.83
9462;BME280;4769;42.660;23.262;2023-02-12T08:36:38;95009.41;;;1.93;82.29
9462;BME280;4769;42.660;23.262;2023-02-12T08:39:05;95018.06;;;1.77;82.95
9462;BME280;4769;42.660;23.262;2023-02-12T08:41:33;95018.19;;;1.84;82.96
9462;BME280;4769;42.660;23.262;2023-02-12T08:44:02;95018.19;;;2.00;82.37
9462;BME280;4769;42.660;23.262;2023-02-12T08:46:31;95028.41;;;2.01;81.77
9462;BME280;4769;42.660;23.262;2023-02-12T08:49:01;95026.97;;;1.99;81.95
9462;BME280;4769;42.660;23.262;2023-02-12T08:51:30;95042.88;;;1.96;82.20
9462;BME280;4769;42.660;23.262;2023-02-12T08:53:58;95036.06;;;2.03;82.09
9462;BME280;4769;42.660;23.262;2023-02-12T08:56:27;95035.06;;;2.04;82.41
9462;BME280;4769;42.660;23.262;2023-02-12T08:58:55;95037.69;;;2.04;83.09
9462;BME280;4769;42.660;23.262;2023-02-12T09:01:25;95041.59;;;2.00;82.80
9462;BME280;4769;42.660;23.262;2023-02-12T09:03:56;95050.63;;;2.20;81.83
9462;BME280;4769;42.660;23.262;2023-02-12T09:06:25;95043.19;;;2.01;82.14
9462;BME280;4769;42.660;23.262;2023-02-12T09:08:53;95054.94;;;1.73;83.38
9462;BME280;4769;42.660;23.262;2023-02-12T09:11:21;95052.81;;;1.76;83.49
9462;BME280;4769;42.660;23.262;2023-02-12T09:13:55;95051.03;;;1.69;83.73
9462;BME280;4769;42.660;23.262;2023-02-12T09:16:22;95066.81;;;1.75;84.04
9462;BME280;4769;42.660;23.262;2023-02-12T09:18:49;95064.03;;;1.77;85.79
9462;BME280;4769;42.660;23.262;2023-02-12T09:21:16;95068.91;;;1.88;84.59
9462;BME280;4769;42.660;23.262;2023-02-12T09:23:46;95072.66;;;1.77;84.79
9462;BME280;4769;42.660;23.262;2023-02-12T09:26:18;95073.97;;;1.65;85.33
9462;BME280;4769;42.660;23.262;2023-02-12T09:28:46;95065.31;;;1.89;84.69
9462;BME280;4769;42.660;23.262;2023-02-12T09:31:16;95063.53;;;1.81;84.46
9462;BME280;4769;42.660;23.262;2023-02-12T09:33:43;95067.47;;;1.69;85.58
9462;BME280;4769;42.660;23.262;2023-02-12T09:36:11;95068.25;;;1.70;86.22
9462;BME280;4769;42.660;23.262;2023-02-12T09:38:38;95061.13;;;1.40;87.16
9462;BME280;4769;42.660;23.262;2023-02-12T09:41:23;95065.69;;;1.62;86.26
9462;BME280;4769;42.660;23.262;2023-02-12T09:44:01;95076.84;;;1.86;86.08
9462;BME280;4769;42.660;23.262;2023-02-12T09:46:37;95060.00;;;1.42;86.85
9462;BME280;4769;42.660;23.262;2023-02-12T09:49:08;95065.34;;;1.65;86.34
9462;BME280;4769;42.660;23.262;2023-02-12T09:51:37;95067.94;;;1.73;85.54
9462;BME280;4769;42.660;23.262;2023-02-12T09:54:12;95079.97;;;1.74;86.55
9462;BME280;4769;42.660;23.262;2023-02-12T09:56:43;95077.50;;;1.72;86.23
9462;BME280;4769;42.660;23.262;2023-02-12T09:59:17;95074.13;;;1.64;86.75
9462;BME280;4769;42.660;23.262;2023-02-12T10:01:47;95076.41;;;1.67;86.44
9462;BME280;4769;42.660;23.262;2023-02-12T10:04:13;95079.00;;;1.43;88.06
9462;BME280;4769;42.660;23.262;2023-02-12T10:06:43;95078.81;;;1.52;87.56
9462;BME280;4769;42.660;23.262;2023-02-12T10:09:30;95078.16;;;1.58;87.79
9462;BME280;4769;42.660;23.262;2023-02-12T10:12:03;95079.97;;;1.74;87.83
9462;BME280;4769;42.660;23.262;2023-02-12T10:15:12;95080.94;;;1.73;87.06
9462;BME280;4769;42.660;23.262;2023-02-12T10:17:42;95086.47;;;1.62;87.64
9462;BME280;4769;42.660;23.262;2023-02-12T10:23:28;95080.78;;;1.74;88.18
9462;BME280;4769;42.660;23.262;2023-02-12T10:26:10;95087.13;;;1.80;87.40
9462;BME280;4769;42.660;23.262;2023-02-12T10:28:40;95070.66;;;2.11;86.88
9462;BME280;4769;42.660;23.262;2023-02-12T10:31:13;95070.44;;;2.29;86.27
9462;BME280;4769;42.660;23.262;2023-02-12T10:33:43;95073.09;;;2.59;84.41
9462;BME280;4769;42.660;23.262;2023-02-12T10:36:15;95075.22;;;2.64;83.92
9462;BME280;4769;42.660;23.262;2023-02-12T10:38:47;95070.50;;;2.59;83.72
9462;BME280;4769;42.660;23.262;2023-02-12T10:41:16;95077.69;;;2.57;84.04
9462;BME280;4769;42.660;23.262;2023-02-12T10:43:44;95079.47;;;2.49;84.56
9462;BME280;4769;42.660;23.262;2023-02-12T10:46:13;95076.72;;;2.50;84.49
9462;BME280;4769;42.660;23.262;2023-02-12T10:48:42;95070.47;;;2.75;83.54
9462;BME280;4769;42.660;23.262;2023-02-12T10:51:29;95079.50;;;2.87;82.63
9462;BME280;4769;42.660;23.262;2023-02-12T10:54:33;95083.56;;;2.90;82.35
9462;BME280;4769;42.660;23.262;2023-02-12T10:57:07;95081.38;;;3.01;82.38
9462;BME280;4769;42.660;23.262;2023-02-12T10:59:37;95074.56;;;3.23;81.92
9462;BME280;4769;42.660;23.262;2023-02-12T11:02:19;95074.81;;;3.13;81.13
9462;BME280;4769;42.660;23.262;2023-02-12T11:04:47;95067.47;;;3.17;81.41
9462;BME280;4769;42.660;23.262;2023-02-12T11:07:14;95074.06;;;3.50;80.95
9462;BME280;4769;42.660;23.262;2023-02-12T11:09:45;95071.56;;;3.79;79.48
9462;BME280;4769;42.660;23.262;2023-02-12T11:12:19;95072.69;;;3.62;78.54
9462;BME280;4769;42.660;23.262;2023-02-12T11:14:51;95083.50;;;3.51;79.50
9462;BME280;4769;42.660;23.262;2023-02-12T11:17:23;95071.53;;;3.11;80.77
9462;BME280;4769;42.660;23.262;2023-02-12T11:20:19;95079.78;;;3.23;81.20
9462;BME280;4769;42.660;23.262;2023-02-12T11:22:51;95073.75;;;3.53;80.34
9462;BME280;4769;42.660;23.262;2023-02-12T11:25:19;95077.16;;;3.90;79.16
9462;BME280;4769;42.660;23.262;2023-02-12T11:30:52;95076.16;;;4.43;76.28
9462;BME280;4769;42.660;23.262;2023-02-12T11:33:28;95064.19;;;4.77;75.43
9462;BME280;4769;42.660;23.262;2023-02-12T11:35:57;95058.88;;;4.56;75.25
9462;BME280;4769;42.660;23.262;2023-02-12T11:38:27;95068.72;;;4.69;74.97
9462;BME280;4769;42.660;23.262;2023-02-12T11:40:58;95061.50;;;4.42;75.55
9462;BME280;4769;42.660;23.262;2023-02-12T11:43:27;95064.63;;;4.37;76.05
9462;BME280;4769;42.660;23.262;2023-02-12T11:45:57;95063.34;;;4.77;74.92
9462;BME280;4769;42.660;23.262;2023-02-12T11:48:29;95061.56;;;4.63;73.50
9462;BME280;4769;42.660;23.262;2023-02-12T11:50:58;95050.13;;;4.93;72.41
9462;BME280;4769;42.660;23.262;2023-02-12T11:53:29;95063.34;;;5.06;72.45
9462;BME280;4769;42.660;23.262;2023-02-12T11:55:59;95050.69;;;5.09;73.02
9462;BME280;4769;42.660;23.262;2023-02-12T11:58:28;95065.63;;;5.30;71.23
9462;BME280;4769;42.660;23.262;2023-02-12T12:01:03;95067.59;;;4.92;71.72
9462;BME280;4769;42.660;23.262;2023-02-12T12:03:37;95069.22;;;4.64;72.68
9462;BME280;4769;42.660;23.262;2023-02-12T12:06:11;95064.06;;;5.00;72.28
9462;BME280;4769;42.660;23.262;2023-02-12T12:08:44;95064.31;;;5.61;70.91
9462;BME280;4769;42.660;23.262;2023-02-12T12:11:17;95068.63;;;5.69;69.02
9462;BME280;4769;42.660;23.262;2023-02-12T12:13:49;95067.50;;;5.57;69.48
9462;BME280;4769;42.660;23.262;2023-02-12T12:16:23;95069.91;;;5.58;69.21
9462;BME280;4769;42.660;23.262;2023-02-12T12:19:14;95076.47;;;5.69;68.61
9462;BME280;4769;42.660;23.262;2023-02-12T12:22:22;95064.84;;;5.15;70.26
9462;BME280;4769;42.660;23.262;2023-02-12T12:24:55;95074.31;;;5.16;71.26
9462;BME280;4769;42.660;23.262;2023-02-12T12:27:30;95067.97;;;5.46;69.26
9462;BME280;4769;42.660;23.262;2023-02-12T12:30:21;95077.44;;;5.47;69.05
9462;BME280;4769;42.660;23.262;2023-02-12T12:32:53;95067.38;;;5.44;69.02
9462;BME280;4769;42.660;23.262;2023-02-12T12:35:28;95084.81;;;5.58;68.71
9462;BME280;4769;42.660;23.262;2023-02-12T12:38:03;95072.69;;;5.50;68.24
9462;BME280;4769;42.660;23.262;2023-02-12T12:40:50;95076.09;;;5.51;67.61
9462;BME280;4769;42.660;23.262;2023-02-12T12:43:25;95080.78;;;5.55;67.91
9462;BME280;4769;42.660;23.262;2023-02-12T12:46:07;95087.63;;;5.56;67.98
9462;BME280;4769;42.660;23.262;2023-02-12T12:48:55;95068.34;;;5.22;68.81
9462;BME280;4769;42.660;23.262;2023-02-12T12:51:34;95075.66;;;5.26;68.95
9462;BME280;4769;42.660;23.262;2023-02-12T12:54:20;95088.03;;;5.39;69.08
9462;BME280;4769;42.660;23.262;2023-02-12T12:57:02;95086.59;;;5.01;69.96
9462;BME280;4769;42.660;23.262;2023-02-12T12:59:49;95096.13;;;5.08;70.43
9462;BME280;4769;42.660;23.262;2023-02-12T13:08:38;95111.13;;;4.71;72.72
9462;BME280;4769;42.660;23.262;2023-02-12T13:11:14;95115.91;;;4.67;72.25
9462;BME280;4769;42.660;23.262;2023-02-12T13:13:49;95119.75;;;4.86;71.81
9462;BME280;4769;42.660;23.262;2023-02-12T13:16:23;95114.00;;;4.76;71.71
9462;BME280;4769;42.660;23.262;2023-02-12T13:18:58;95101.56;;;4.63;72.55
9462;BME280;4769;42.660;23.262;2023-02-12T13:21:37;95114.63;;;4.63;73.61
9462;BME280;4769;42.660;23.262;2023-02-12T13:24:21;95112.22;;;4.47;73.62
9462;BME280;4769;42.660;23.262;2023-02-12T13:26:53;95124.25;;;4.48;74.24
9462;BME280;4769;42.660;23.262;2023-02-12T13:29:23;95126.50;;;4.37;75.27
9462;BME280;4769;42.660;23.262;2023-02-12T13:31:56;95126.91;;;4.11;76.42
9462;BME280;4769;42.660;23.262;2023-02-12T13:34:26;95125.56;;;3.93;77.53
9462;BME280;4769;42.660;23.262;2023-02-12T13:36:59;95125.34;;;4.17;76.77
9462;BME280;4769;42.660;23.262;2023-02-12T13:39:28;95124.28;;;4.11;76.51
9462;BME280;4769;42.660;23.262;2023-02-12T13:42:04;95128.06;;;4.23;76.32
9462;BME280;4769;42.660;23.262;2023-02-12T13:44:39;95133.19;;;4.17;76.46
9462;BME280;4769;42.660;23.262;2023-02-12T13:47:14;95124.22;;;4.19;77.21
9462;BME280;4769;42.660;23.262;2023-02-12T13:49:48;95134.94;;;4.39;76.23
9462;BME280;4769;42.660;23.262;2023-02-12T13:52:26;95126.97;;;4.55;74.85
9462;BME280;4769;42.660;23.262;2023-02-12T13:55:03;95147.72;;;4.34;75.24